Terminal Aerodrome Forecast
Issued by NWS

Home | Current Version | Previous Version | Text Only | Print | Product List | Glossary On
Versions: 1 2 3 4 5 6 7 8 9 10 11 12 13 14 15 16 17 18 19 20 21 22 23 24 25 26 27 28 29 30
000
FTAK31 PAFA 261735
TAFAUN
TAF
PAUN 261735Z 2618/2718 32010KT P6SM VCSH OVC011
     FM262000 33007KT P6SM BKN060
     FM270000 08008KT P6SM SCT080
     FM270900 09015KT P6SM BKN080
     FM271500 09025KT P6SM OVC050=

USA.gov is the U.S. government's official web portal to all federal, state and local government web resources and services.